UNR Ag. Experiment Farm, Sparks, Nevada Weather observations

Data are for 10 minute period ending at time listed.
 Day   Time   Solar   Ave.   Ave.  Ave.  Vector  Max.   Baro.   Total    
  of    of     Rad.   Air    Rel.  Wind   Wind   Wind  Press.  Precip.   
Year   Day            Temp.  Hum.  Speed  Dir.   Gust                    
2015   (PST)  Kw/m2    F      %     mph   deg.    mph    mb.     in.     
-------------------------------------------------------------------------
 125   13:20   0.92   71.2    24    7.6   348    14.8   860.0    0.00 
 125   13:30   0.91   71.6    24    8.1     5    14.4   859.9    0.00 
 125   13:40   0.91   71.9    22    9.0   313    16.6   859.8    0.00 
 125   13:50   0.88   71.8    21   13.3   298    28.9   859.7    0.00 
 125   14:00   0.78   71.7    21    9.9   287    16.2   859.7    0.00 
 125   14:10   0.86   73.2    16   10.0   260    19.1   859.6    0.00 
 125   14:20   0.81   73.2    18   11.8   265    18.9   859.4    0.00 
 125   14:30   0.78   72.7    18   11.8   279    20.5   859.4    0.00 
 125   14:40   0.75   71.9    22   11.9   282    20.9   859.3    0.00 
 125   14:50   0.75   72.2    18   13.6   266    21.6   859.3    0.00 
 125   15:00   0.73   72.7    18   15.0   260    24.0   859.1    0.00 
 125   15:10   0.70   72.4    20   12.7   267    22.5   859.1    0.00 
 125   15:20   0.67   72.0    20   12.1   270    20.2   859.0    0.00 
 125   15:30   0.64   72.8    18   15.3   248    22.5   859.0    0.00 
 125   15:40   0.62   72.2    20   15.4   264    25.2   859.0    0.00 
 125   15:50   0.58   70.8    22   13.0   270    19.3   859.0    0.00 
 125   16:00   0.56   71.5    20   14.5   261    22.1   859.0    0.00 
 125   16:10   0.54   72.4    18   13.7   254    20.6   859.0    0.00 
 125   16:20   0.49   71.6    19   13.1   257    18.6   859.1    0.00 
 125   16:30   0.29   69.9    21   15.0   263    22.6   859.2    0.00 
 125   16:40   0.20   68.3    22   14.6   265    18.9   859.2    0.00 
 125   16:50   0.19   67.9    23   14.5   273    23.1   859.2    0.00 
 125   17:00   0.16   66.6    25   11.6   276    17.8   859.2    0.00 
 125   17:10   0.15   67.2    24   12.7   268    18.6   859.3    0.00 
 125   17:20   0.13   66.5    25   14.1   264    19.9   859.3    0.00 
 125   17:30   0.11   66.3    25   15.3   259    20.2   859.3    0.00 
 125   17:40   0.10   65.8    25   14.3   261    19.6   859.3    0.00 
 125   17:50   0.09   65.0    26   13.5   270    18.2   859.3    0.00 
 125   18:00   0.09   64.7    26   14.0   272    20.2   859.3    0.00 
 125   18:10   0.07   64.1    28   11.9   271    17.4   859.5    0.00 
 125   18:20   0.05   64.0    27   11.5   263    17.2   859.5    0.00 
 125   18:30   0.04   63.7    28   12.0   264    19.6   859.6    0.00 
 125   18:40   0.03   63.5    27   12.7   262    18.6   859.7    0.00 
 125   18:50   0.01   63.1    28   11.9   262    17.7   859.8    0.00 
 125   19:00   0.00   62.0    30    9.7   270    16.7   859.9    0.00 
 125   19:10   0.00   61.8    29   10.2   268    17.0   860.0    0.00 
 125   19:20   0.00   61.2    30    8.9   281    13.0   860.1    0.00 
 125   19:30   0.00   60.6    30    8.9   281    12.8   860.2    0.00 
 125   19:40   0.00   60.5    30   10.4   283    17.2   860.3    0.00 
 125   19:50   0.00   60.2    31   10.1   288    17.7   860.4    0.00 
 125   20:00   0.00   59.9    31   11.2   285    17.7   860.5    0.00 
 125   20:10   0.00   59.3    33   10.4   286    18.6   860.4    0.00 
 125   20:20   0.00   59.2    33   11.5   285    16.5   860.5    0.00 
 125   20:30   0.00   59.0    34   11.5   281    17.1   860.6    0.00 
 125   20:40   0.00   58.7    35   12.9   284    18.6   860.6    0.00 
 125   20:50   0.00   58.4    35   13.5   277    19.4   860.6    0.00 
 125   21:00   0.00   58.5    35   14.9   266    20.5   860.5    0.00 
 125   21:10   0.00   58.3    35   13.8   271    20.5   860.6    0.00 
 125   21:20   0.00   57.6    36    9.8   274    15.9   860.7    0.00 
 125   21:30   0.00   57.1    37    9.5   280    15.4   860.7    0.00 
 125   21:40   0.00   56.7    37    7.9   294    11.8   860.7    0.00 
 125   21:50   0.00   56.2    38    7.7   288    12.6   860.7    0.00 
 125   22:00   0.00   55.4    39    7.0   289    10.5   860.6    0.00 
 125   22:10   0.00   55.0    39    7.4   288    11.9   860.6    0.00 
 125   22:20   0.00   54.4    40    7.1   283    11.2   860.6    0.00 
 125   22:30   0.00   54.6    40    6.3   287     9.1   860.6    0.00 
 125   22:40   0.00   54.0    40    3.1   304     7.3   860.7    0.00 
 125   22:50   0.00   53.4    41    2.5   306     4.5   860.7    0.00 
 125   23:00   0.00   51.8    44    3.4    13     6.8   860.7    0.00 
 125   23:10   0.00   51.6    44    4.2     6     7.6   860.8    0.00 
 125   23:20   0.00   50.7    47    1.5   353     3.1   860.7    0.00 
 125   23:30   0.00   49.7    46    0.7   105     2.0   860.8    0.00 
 125   23:40   0.00   49.6    48    1.0    92     1.8   860.8    0.00 
 125   23:50   0.00   50.0    45    1.7    29     2.9   860.8    0.00 
 126    0:00   0.00   51.4    40    1.1    14     2.8   860.8    0.00 
 126    0:10   0.00   51.3    42    3.6     4     5.9   860.8    0.00 
 126    0:20   0.00   49.3    48    4.9    21     6.9   860.9    0.00 
 126    0:30   0.00   48.4    50    1.7    21     3.1   860.8    0.00 
 126    0:40   0.00   45.1    54    3.5   177     4.5   860.8    0.00 
 126    0:50   0.00   48.9    47    3.7   199     4.6   860.7    0.00 
 126    1:00   0.00   50.4    42    3.4   286     8.3   860.7    0.00 
 126    1:10   0.00   48.5    46    3.8   214     5.8   860.6    0.00 
 126    1:20   0.00   44.9    56    1.5   106     2.2   860.5    0.00 
 126    1:30   0.00   44.0    59    2.2   140     3.1   860.5    0.00 
 126    1:40   0.00   44.1    62    4.6    56     6.9   860.5    0.00 
 126    1:50   0.00   44.5    58    3.6    27     5.6   860.5    0.00 
 126    2:00   0.00   42.8    59    1.4   237     2.8   860.5    0.00 
 126    2:10   0.00   43.4    58    1.9   214     3.4   860.4    0.00 
 126    2:20   0.00   41.5    62    2.6   192     4.2   860.4    0.00 
 126    2:30   0.00   40.9    64    3.9   200     4.9   860.5    0.00 
 126    2:40   0.00   41.5    61    1.3   184     2.9   860.5    0.00 
 126    2:50   0.00   41.4    63    2.0   194     3.4   860.5    0.00 
 126    3:00   0.00   42.0    62    1.4   207     2.9   860.5    0.00 
 126    3:10   0.00   41.9    62    2.3   230     3.6   860.5    0.00 
 126    3:20   0.00   40.1    61    2.8   216     3.6   860.5    0.00 
 126    3:30   0.00   39.7    62    3.5   210     4.2   860.4    0.00 
 126    3:40   0.00   38.1    69    2.4   104     4.6   860.4    0.00 
 126    3:50   0.00   39.2    70    1.1   277     2.3   860.3    0.00 
 126    4:00   0.00   39.9    64    0.5   266     2.2   860.3    0.00 
 126    4:10   0.00   37.8    69    0.2   111     2.6   860.2    0.00 
 126    4:20   0.00   37.8    73    0.2   111     1.0   860.2    0.00 
 126    4:30   0.00   37.9    75    1.4   271     2.5   860.1    0.00 
 126    4:40   0.00   35.2    74    1.8   215     3.9   860.2    0.00 
 126    4:50   0.00   34.7    77    1.5   108     3.9   860.2    0.00 
 126    5:00   0.00   36.6    75    1.9   104     3.9   860.3    0.00 
 126    5:10   0.01   34.8    82    1.4   302     4.2   860.4    0.00 
 126    5:20   0.02   35.6    84    1.2   264     2.4   860.4    0.00 
 126    5:30   0.04   36.5    77    0.4   182     1.8   860.5    0.00 
 126    5:40   0.07   36.2    75    0.6   179     1.5   860.5    0.00 
 126    5:50   0.09   37.3    76    0.5   178     1.3   860.6    0.00 
 126    6:00   0.12   39.4    75    2.2   151     4.1   860.6    0.00 
 126    6:10   0.14   41.6    66    3.5   155     4.4   860.6    0.00 
 126    6:20   0.16   43.9    61    3.2   148     4.2   860.6    0.00 
 126    6:30   0.20   45.7    55    2.7   149     3.4   860.7    0.00 
 126    6:40   0.22   48.0    45    1.3   143     2.6   860.7    0.00 
 126    6:50   0.26   50.3    36    0.6   138     2.0   860.7    0.00 
 126    7:00   0.29   51.0    34    1.0   127     3.0   860.5    0.00 
 126    7:10   0.32   51.8    32    1.7    88     3.1   860.4    0.00 
 126    7:20   0.35   52.4    32    1.4    87     4.0   860.4    0.00 
 126    7:30   0.38   52.4    32    1.8    82     4.1   860.4    0.00 
 126    7:40   0.41   53.8    30    0.8   121     2.0   860.2    0.00 
 126    7:50   0.44   53.4    31    1.7     7     3.4   860.1    0.00 
 126    8:00   0.47   53.8    29    2.0    52     4.2   859.9    0.00 
 126    8:10   0.50   55.0    29    1.9   133     5.0   859.9    0.00 
 126    8:20   0.53   54.0    29    2.4   312     4.7   859.8    0.00 
 126    8:30   0.56   54.6    29    2.4   147     6.1   859.8    0.00 
 126    8:40   0.59   55.3    28    4.5    77     9.6   859.6    0.00 
 126    8:50   0.61   56.3    27    3.7    68     7.7   859.6    0.00 
 126    9:00   0.64   56.7    28    4.8    50    10.3   859.6    0.00 
 126    9:10   0.67   56.9    29    5.0    51     9.7   859.5    0.00 
 126    9:20   0.69   57.3    30    4.1     9     7.2   859.4    0.00 
 126    9:30   0.72   57.2    31    3.9    28    10.7   859.4    0.00 
 126    9:40   0.74   58.1    29    2.4    67     6.4   859.4    0.00 
 126    9:50   0.77   58.6    28    4.5    64     8.8   859.2    0.00 
 126   10:00   0.81   59.2    30    7.4    58    13.2   859.1    0.00 
 126   10:10   0.82   59.2    29    5.5    48    11.5   859.1    0.00 
 126   10:20   0.94   59.9    31    5.7    36    11.8   859.0    0.00 
 126   10:30   0.99   60.3    31    6.3    21    11.0   859.0    0.00 
 126   10:40   0.79   60.5    29    6.2    25    13.4   859.0    0.00 
 126   10:50   0.74   59.1    30    6.8    11    14.7   858.9    0.00 
 126   11:00   0.95   59.8    32    5.5   343    11.1   858.7    0.00 
 126   11:10   0.93   60.2    31    7.2   339    12.6   858.6    0.00 
 126   11:20   0.70   60.2    27    2.1   284     6.0   858.6    0.00 
 126   11:30   0.97   61.6    30    5.1   327    14.6   858.4    0.00 
 126   11:40   0.65   60.2    28    5.1   310    13.2   858.3    0.00 
 126   11:50   0.95   61.8    29    3.5   330     8.6   858.2    0.00 
 126   12:00   0.81   61.0    28    4.1   340     7.1   858.1    0.00 
 126   12:10   0.65   61.1    30    7.2    30    13.7   858.0    0.00 
 126   12:20   0.93   61.6    32    9.2    36    17.0   857.9    0.00 
 126   12:30   0.56   60.7    32   11.0   355    17.7   857.9    0.00 
 126   12:40   0.31   57.3    37   22.6   323    33.9   857.9    0.00 
 126   12:50   0.28   54.2    43   24.7   324    35.7   858.0    0.00 
 126   13:00   0.27   53.1    47   24.2   325    33.5   858.1    0.00 
 126   13:10   0.51   53.2    50   22.2   327    31.2   858.2    0.00 

Return to Sparks, Nevada, UNR Ag Experiment Farm graphs page.


Western Regional Climate Center,wrcc@dri.edu